sensor_id;sensor_type;location;lat;lon;timestamp;P1;durP1;ratioP1;P2;durP2;ratioP2
4921;SDS011;16625;53.624;10.106;2022-08-21T00:00:55;11.10;;;5.60;;
4921;SDS011;16625;53.624;10.106;2022-08-21T00:03:22;7.40;;;6.10;;
4921;SDS011;16625;53.624;10.106;2022-08-21T00:05:50;8.80;;;5.10;;
4921;SDS011;16625;53.624;10.106;2022-08-21T00:08:17;13.50;;;6.20;;
4921;SDS011;16625;53.624;10.106;2022-08-21T00:10:46;8.50;;;5.60;;
4921;SDS011;16625;53.624;10.106;2022-08-21T00:13:14;12.00;;;5.70;;
4921;SDS011;16625;53.624;10.106;2022-08-21T00:15:46;7.80;;;4.70;;
4921;SDS011;16625;53.624;10.106;2022-08-21T00:18:13;7.90;;;5.23;;
4921;SDS011;16625;53.624;10.106;2022-08-21T00:20:42;8.43;;;5.30;;
4921;SDS011;16625;53.624;10.106;2022-08-21T00:23:10;8.67;;;5.90;;
4921;SDS011;16625;53.624;10.106;2022-08-21T00:25:37;7.17;;;5.07;;
4921;SDS011;16625;53.624;10.106;2022-08-21T00:28:05;7.40;;;5.30;;
4921;SDS011;16625;53.624;10.106;2022-08-21T00:30:33;8.73;;;5.30;;
4921;SDS011;16625;53.624;10.106;2022-08-21T00:33:03;14.27;;;6.10;;
4921;SDS011;16625;53.624;10.106;2022-08-21T00:35:32;18.20;;;5.50;;
4921;SDS011;16625;53.624;10.106;2022-08-21T00:38:02;18.53;;;5.80;;
4921;SDS011;16625;53.624;10.106;2022-08-21T00:40:30;7.00;;;5.50;;
4921;SDS011;16625;53.624;10.106;2022-08-21T00:43:00;10.30;;;5.90;;
4921;SDS011;16625;53.624;10.106;2022-08-21T00:45:28;10.70;;;6.17;;
4921;SDS011;16625;53.624;10.106;2022-08-21T00:47:55;12.43;;;6.70;;
4921;SDS011;16625;53.624;10.106;2022-08-21T00:50:23;11.50;;;6.20;;
4921;SDS011;16625;53.624;10.106;2022-08-21T00:52:54;10.20;;;5.70;;
4921;SDS011;16625;53.624;10.106;2022-08-21T00:55:23;7.93;;;5.23;;
4921;SDS011;16625;53.624;10.106;2022-08-21T00:57:51;9.50;;;5.30;;
4921;SDS011;16625;53.624;10.106;2022-08-21T01:00:21;7.23;;;5.50;;
4921;SDS011;16625;53.624;10.106;2022-08-21T01:02:52;9.50;;;6.13;;
4921;SDS011;16625;53.624;10.106;2022-08-21T01:05:20;8.03;;;5.90;;
4921;SDS011;16625;53.624;10.106;2022-08-21T01:08:03;8.60;;;6.30;;
4921;SDS011;16625;53.624;10.106;2022-08-21T01:10:31;8.23;;;5.90;;
4921;SDS011;16625;53.624;10.106;2022-08-21T01:12:58;8.30;;;6.23;;
4921;SDS011;16625;53.624;10.106;2022-08-21T01:15:26;13.30;;;6.40;;
4921;SDS011;16625;53.624;10.106;2022-08-21T01:17:56;8.57;;;6.00;;
4921;SDS011;16625;53.624;10.106;2022-08-21T01:20:23;10.40;;;5.27;;
4921;SDS011;16625;53.624;10.106;2022-08-21T01:22:52;8.73;;;6.33;;
4921;SDS011;16625;53.624;10.106;2022-08-21T01:25:19;13.07;;;6.63;;
4921;SDS011;16625;53.624;10.106;2022-08-21T01:27:46;9.80;;;6.53;;
4921;SDS011;16625;53.624;10.106;2022-08-21T01:30:13;9.93;;;6.87;;
4921;SDS011;16625;53.624;10.106;2022-08-21T01:32:43;9.57;;;6.80;;
4921;SDS011;16625;53.624;10.106;2022-08-21T01:35:11;14.20;;;6.80;;
4921;SDS011;16625;53.624;10.106;2022-08-21T01:37:38;15.00;;;6.73;;
4921;SDS011;16625;53.624;10.106;2022-08-21T01:40:07;9.77;;;6.77;;
4921;SDS011;16625;53.624;10.106;2022-08-21T01:42:36;9.60;;;7.23;;
4921;SDS011;16625;53.624;10.106;2022-08-21T01:45:04;9.97;;;7.30;;
4921;SDS011;16625;53.624;10.106;2022-08-21T01:47:31;10.97;;;7.67;;
4921;SDS011;16625;53.624;10.106;2022-08-21T01:49:59;13.03;;;7.40;;
4921;SDS011;16625;53.624;10.106;2022-08-21T01:52:28;8.20;;;6.73;;
4921;SDS011;16625;53.624;10.106;2022-08-21T01:54:55;12.03;;;7.20;;
4921;SDS011;16625;53.624;10.106;2022-08-21T01:57:23;14.13;;;8.20;;
4921;SDS011;16625;53.624;10.106;2022-08-21T01:59:50;11.77;;;6.63;;
4921;SDS011;16625;53.624;10.106;2022-08-21T02:02:17;9.97;;;6.23;;
4921;SDS011;16625;53.624;10.106;2022-08-21T02:04:44;10.93;;;7.60;;
4921;SDS011;16625;53.624;10.106;2022-08-21T02:07:11;11.17;;;7.77;;
4921;SDS011;16625;53.624;10.106;2022-08-21T02:09:38;15.10;;;7.10;;
4921;SDS011;16625;53.624;10.106;2022-08-21T02:12:07;9.80;;;6.93;;
4921;SDS011;16625;53.624;10.106;2022-08-21T02:14:35;10.23;;;7.20;;
4921;SDS011;16625;53.624;10.106;2022-08-21T02:17:02;12.90;;;7.40;;
4921;SDS011;16625;53.624;10.106;2022-08-21T02:19:30;11.57;;;7.73;;
4921;SDS011;16625;53.624;10.106;2022-08-21T02:21:57;10.17;;;7.20;;
4921;SDS011;16625;53.624;10.106;2022-08-21T02:24:24;8.77;;;6.43;;
4921;SDS011;16625;53.624;10.106;2022-08-21T02:26:50;9.10;;;7.10;;
4921;SDS011;16625;53.624;10.106;2022-08-21T02:29:17;8.77;;;6.60;;
4921;SDS011;16625;53.624;10.106;2022-08-21T02:31:45;8.70;;;6.70;;
4921;SDS011;16625;53.624;10.106;2022-08-21T02:34:12;9.93;;;7.17;;
4921;SDS011;16625;53.624;10.106;2022-08-21T02:36:39;14.40;;;7.40;;
4921;SDS011;16625;53.624;10.106;2022-08-21T02:39:06;11.77;;;7.40;;
4921;SDS011;16625;53.624;10.106;2022-08-21T02:41:33;9.93;;;6.80;;
4921;SDS011;16625;53.624;10.106;2022-08-21T02:43:59;13.23;;;7.23;;
4921;SDS011;16625;53.624;10.106;2022-08-21T02:46:26;9.97;;;7.50;;
4921;SDS011;16625;53.624;10.106;2022-08-21T02:48:55;8.60;;;7.00;;
4921;SDS011;16625;53.624;10.106;2022-08-21T02:51:21;11.33;;;7.50;;
4921;SDS011;16625;53.624;10.106;2022-08-21T02:53:50;12.80;;;7.23;;
4921;SDS011;16625;53.624;10.106;2022-08-21T02:56:18;9.13;;;6.50;;
4921;SDS011;16625;53.624;10.106;2022-08-21T02:58:47;8.30;;;6.13;;
4921;SDS011;16625;53.624;10.106;2022-08-21T03:01:16;9.40;;;6.30;;
4921;SDS011;16625;53.624;10.106;2022-08-21T03:03:44;7.57;;;6.07;;
4921;SDS011;16625;53.624;10.106;2022-08-21T03:06:16;11.03;;;6.17;;
4921;SDS011;16625;53.624;10.106;2022-08-21T03:08:46;9.83;;;5.87;;
4921;SDS011;16625;53.624;10.106;2022-08-21T03:11:13;18.97;;;6.10;;
4921;SDS011;16625;53.624;10.106;2022-08-21T03:13:41;7.30;;;5.77;;
4921;SDS011;16625;53.624;10.106;2022-08-21T03:16:10;6.00;;;5.33;;
4921;SDS011;16625;53.624;10.106;2022-08-21T03:18:37;8.90;;;5.27;;
4921;SDS011;16625;53.624;10.106;2022-08-21T03:21:04;7.47;;;5.63;;
4921;SDS011;16625;53.624;10.106;2022-08-21T03:23:33;11.00;;;6.10;;
4921;SDS011;16625;53.624;10.106;2022-08-21T03:26:01;8.23;;;6.13;;
4921;SDS011;16625;53.624;10.106;2022-08-21T03:28:28;11.03;;;6.20;;
4921;SDS011;16625;53.624;10.106;2022-08-21T03:30:55;7.67;;;4.73;;
4921;SDS011;16625;53.624;10.106;2022-08-21T03:33:22;5.70;;;4.70;;
4921;SDS011;16625;53.624;10.106;2022-08-21T03:35:52;8.80;;;5.40;;
4921;SDS011;16625;53.624;10.106;2022-08-21T03:38:23;8.40;;;5.50;;
4921;SDS011;16625;53.624;10.106;2022-08-21T03:40:52;8.00;;;5.43;;
4921;SDS011;16625;53.624;10.106;2022-08-21T03:43:19;7.70;;;4.77;;
4921;SDS011;16625;53.624;10.106;2022-08-21T03:45:46;6.50;;;4.40;;
4921;SDS011;16625;53.624;10.106;2022-08-21T03:48:13;7.40;;;4.80;;
4921;SDS011;16625;53.624;10.106;2022-08-21T03:50:41;7.67;;;5.27;;
4921;SDS011;16625;53.624;10.106;2022-08-21T03:53:10;7.77;;;4.57;;
4921;SDS011;16625;53.624;10.106;2022-08-21T03:55:39;9.23;;;4.70;;
4921;SDS011;16625;53.624;10.106;2022-08-21T03:58:07;9.53;;;5.40;;
4921;SDS011;16625;53.624;10.106;2022-08-21T04:00:34;8.43;;;4.97;;
4921;SDS011;16625;53.624;10.106;2022-08-21T04:03:02;8.97;;;6.17;;
4921;SDS011;16625;53.624;10.106;2022-08-21T04:05:29;6.73;;;4.80;;
4921;SDS011;16625;53.624;10.106;2022-08-21T04:07:57;9.33;;;5.27;;
4921;SDS011;16625;53.624;10.106;2022-08-21T04:10:25;9.13;;;5.67;;
4921;SDS011;16625;53.624;10.106;2022-08-21T04:12:53;11.47;;;4.83;;
4921;SDS011;16625;53.624;10.106;2022-08-21T04:15:22;6.00;;;4.90;;
4921;SDS011;16625;53.624;10.106;2022-08-21T04:17:50;7.50;;;4.67;;
4921;SDS011;16625;53.624;10.106;2022-08-21T04:20:18;11.23;;;4.63;;
4921;SDS011;16625;53.624;10.106;2022-08-21T04:22:46;9.87;;;5.83;;
4921;SDS011;16625;53.624;10.106;2022-08-21T04:25:14;9.83;;;5.20;;
4921;SDS011;16625;53.624;10.106;2022-08-21T04:27:42;8.73;;;5.70;;
4921;SDS011;16625;53.624;10.106;2022-08-21T04:30:10;13.13;;;5.20;;
4921;SDS011;16625;53.624;10.106;2022-08-21T04:32:41;9.13;;;4.70;;
4921;SDS011;16625;53.624;10.106;2022-08-21T04:35:09;13.20;;;5.87;;
4921;SDS011;16625;53.624;10.106;2022-08-21T04:37:37;9.40;;;5.43;;
4921;SDS011;16625;53.624;10.106;2022-08-21T04:40:04;10.43;;;4.27;;
4921;SDS011;16625;53.624;10.106;2022-08-21T04:42:39;10.20;;;6.07;;
4921;SDS011;16625;53.624;10.106;2022-08-21T04:45:09;7.43;;;4.77;;
4921;SDS011;16625;53.624;10.106;2022-08-21T04:47:43;10.17;;;4.60;;
4921;SDS011;16625;53.624;10.106;2022-08-21T04:50:09;7.13;;;5.53;;
4921;SDS011;16625;53.624;10.106;2022-08-21T04:52:36;10.13;;;5.77;;
4921;SDS011;16625;53.624;10.106;2022-08-21T04:55:03;7.17;;;4.87;;
4921;SDS011;16625;53.624;10.106;2022-08-21T04:57:31;6.90;;;4.10;;
4921;SDS011;16625;53.624;10.106;2022-08-21T04:59:58;8.30;;;4.37;;
4921;SDS011;16625;53.624;10.106;2022-08-21T05:02:26;8.20;;;4.60;;
4921;SDS011;16625;53.624;10.106;2022-08-21T05:04:55;9.73;;;5.37;;
4921;SDS011;16625;53.624;10.106;2022-08-21T05:07:24;8.03;;;4.50;;
4921;SDS011;16625;53.624;10.106;2022-08-21T05:09:54;4.53;;;3.90;;
4921;SDS011;16625;53.624;10.106;2022-08-21T05:12:21;12.50;;;4.77;;
4921;SDS011;16625;53.624;10.106;2022-08-21T05:14:48;6.57;;;4.60;;
4921;SDS011;16625;53.624;10.106;2022-08-21T05:17:15;15.00;;;4.60;;
4921;SDS011;16625;53.624;10.106;2022-08-21T05:19:43;5.93;;;4.73;;
4921;SDS011;16625;53.624;10.106;2022-08-21T05:22:18;6.40;;;4.70;;
4921;SDS011;16625;53.624;10.106;2022-08-21T05:24:45;7.20;;;4.60;;
4921;SDS011;16625;53.624;10.106;2022-08-21T05:27:12;9.20;;;4.87;;
4921;SDS011;16625;53.624;10.106;2022-08-21T05:29:39;7.60;;;4.73;;
4921;SDS011;16625;53.624;10.106;2022-08-21T05:32:07;4.90;;;4.07;;
4921;SDS011;16625;53.624;10.106;2022-08-21T05:34:35;8.40;;;5.03;;
4921;SDS011;16625;53.624;10.106;2022-08-21T05:37:05;15.30;;;4.60;;
4921;SDS011;16625;53.624;10.106;2022-08-21T05:39:33;5.67;;;4.23;;
4921;SDS011;16625;53.624;10.106;2022-08-21T05:42:00;9.87;;;4.67;;
4921;SDS011;16625;53.624;10.106;2022-08-21T05:44:27;10.43;;;4.47;;
4921;SDS011;16625;53.624;10.106;2022-08-21T05:46:54;6.23;;;4.50;;
4921;SDS011;16625;53.624;10.106;2022-08-21T05:49:21;6.27;;;4.10;;
4921;SDS011;16625;53.624;10.106;2022-08-21T05:51:47;6.00;;;4.00;;
4921;SDS011;16625;53.624;10.106;2022-08-21T05:54:14;10.67;;;4.57;;
4921;SDS011;16625;53.624;10.106;2022-08-21T05:56:43;11.27;;;4.63;;
4921;SDS011;16625;53.624;10.106;2022-08-21T05:59:10;6.20;;;4.03;;
4921;SDS011;16625;53.624;10.106;2022-08-21T06:01:38;4.50;;;3.80;;
4921;SDS011;16625;53.624;10.106;2022-08-21T06:04:05;5.07;;;4.40;;
4921;SDS011;16625;53.624;10.106;2022-08-21T06:06:32;9.50;;;4.83;;
4921;SDS011;16625;53.624;10.106;2022-08-21T06:08:59;5.50;;;4.17;;
4921;SDS011;16625;53.624;10.106;2022-08-21T06:11:26;8.87;;;4.60;;
4921;SDS011;16625;53.624;10.106;2022-08-21T06:13:55;6.13;;;4.27;;
4921;SDS011;16625;53.624;10.106;2022-08-21T06:16:23;14.77;;;4.23;;
4921;SDS011;16625;53.624;10.106;2022-08-21T06:18:50;5.70;;;3.90;;
4921;SDS011;16625;53.624;10.106;2022-08-21T06:21:17;3.37;;;3.00;;
4921;SDS011;16625;53.624;10.106;2022-08-21T06:23:45;5.20;;;3.30;;
4921;SDS011;16625;53.624;10.106;2022-08-21T06:26:13;15.17;;;3.73;;
4921;SDS011;16625;53.624;10.106;2022-08-21T06:28:40;4.70;;;3.53;;
4921;SDS011;16625;53.624;10.106;2022-08-21T06:31:13;5.33;;;3.70;;
4921;SDS011;16625;53.624;10.106;2022-08-21T06:33:41;7.93;;;4.03;;
4921;SDS011;16625;53.624;10.106;2022-08-21T06:36:08;5.73;;;3.63;;
4921;SDS011;16625;53.624;10.106;2022-08-21T06:38:36;7.43;;;3.80;;
4921;SDS011;16625;53.624;10.106;2022-08-21T06:41:03;6.53;;;3.50;;
4921;SDS011;16625;53.624;10.106;2022-08-21T06:43:31;5.43;;;3.93;;
4921;SDS011;16625;53.624;10.106;2022-08-21T06:45:58;4.40;;;3.20;;
4921;SDS011;16625;53.624;10.106;2022-08-21T06:48:26;6.60;;;3.30;;
4921;SDS011;16625;53.624;10.106;2022-08-21T06:50:54;4.97;;;3.33;;
4921;SDS011;16625;53.624;10.106;2022-08-21T06:53:21;4.80;;;3.10;;
4921;SDS011;16625;53.624;10.106;2022-08-21T06:55:48;7.27;;;3.57;;
4921;SDS011;16625;53.624;10.106;2022-08-21T06:58:15;7.13;;;3.70;;
4921;SDS011;16625;53.624;10.106;2022-08-21T07:00:46;7.03;;;3.00;;
4921;SDS011;16625;53.624;10.106;2022-08-21T07:03:17;7.03;;;3.30;;
4921;SDS011;16625;53.624;10.106;2022-08-21T07:05:50;4.83;;;3.13;;
4921;SDS011;16625;53.624;10.106;2022-08-21T07:08:17;6.33;;;3.47;;
4921;SDS011;16625;53.624;10.106;2022-08-21T07:10:44;8.43;;;3.17;;
4921;SDS011;16625;53.624;10.106;2022-08-21T07:13:11;9.73;;;3.40;;
4921;SDS011;16625;53.624;10.106;2022-08-21T07:15:39;6.20;;;3.20;;
4921;SDS011;16625;53.624;10.106;2022-08-21T07:18:06;5.80;;;3.03;;
4921;SDS011;16625;53.624;10.106;2022-08-21T07:20:33;6.80;;;3.30;;
4921;SDS011;16625;53.624;10.106;2022-08-21T07:23:03;3.60;;;2.93;;
4921;SDS011;16625;53.624;10.106;2022-08-21T07:25:34;7.33;;;3.67;;
4921;SDS011;16625;53.624;10.106;2022-08-21T07:28:01;8.40;;;3.03;;
4921;SDS011;16625;53.624;10.106;2022-08-21T07:30:28;6.53;;;3.23;;
4921;SDS011;16625;53.624;10.106;2022-08-21T07:32:55;5.23;;;3.20;;
4921;SDS011;16625;53.624;10.106;2022-08-21T07:35:23;4.63;;;2.70;;
4921;SDS011;16625;53.624;10.106;2022-08-21T07:37:49;7.80;;;3.17;;
4921;SDS011;16625;53.624;10.106;2022-08-21T07:40:18;5.97;;;2.77;;
4921;SDS011;16625;53.624;10.106;2022-08-21T07:42:46;8.90;;;2.73;;
4921;SDS011;16625;53.624;10.106;2022-08-21T07:45:16;4.53;;;2.80;;
4921;SDS011;16625;53.624;10.106;2022-08-21T07:47:44;5.33;;;2.80;;
4921;SDS011;16625;53.624;10.106;2022-08-21T07:50:12;4.87;;;3.23;;
4921;SDS011;16625;53.624;10.106;2022-08-21T07:52:39;9.70;;;2.83;;
4921;SDS011;16625;53.624;10.106;2022-08-21T07:55:08;4.77;;;2.60;;
4921;SDS011;16625;53.624;10.106;2022-08-21T07:57:38;4.73;;;2.90;;
4921;SDS011;16625;53.624;10.106;2022-08-21T08:00:06;9.90;;;3.10;;
4921;SDS011;16625;53.624;10.106;2022-08-21T08:02:35;5.70;;;2.87;;
4921;SDS011;16625;53.624;10.106;2022-08-21T08:05:03;5.63;;;2.70;;
4921;SDS011;16625;53.624;10.106;2022-08-21T08:07:33;4.20;;;2.53;;
4921;SDS011;16625;53.624;10.106;2022-08-21T08:10:00;4.63;;;2.20;;
4921;SDS011;16625;53.624;10.106;2022-08-21T08:12:27;6.70;;;2.80;;
4921;SDS011;16625;53.624;10.106;2022-08-21T08:14:56;7.20;;;2.57;;
4921;SDS011;16625;53.624;10.106;2022-08-21T08:17:23;13.33;;;2.90;;
4921;SDS011;16625;53.624;10.106;2022-08-21T08:19:50;12.10;;;3.00;;
4921;SDS011;16625;53.624;10.106;2022-08-21T08:22:19;4.37;;;2.60;;
4921;SDS011;16625;53.624;10.106;2022-08-21T08:24:48;5.07;;;2.60;;
4921;SDS011;16625;53.624;10.106;2022-08-21T08:27:16;5.00;;;2.17;;
4921;SDS011;16625;53.624;10.106;2022-08-21T08:29:44;8.70;;;2.93;;
4921;SDS011;16625;53.624;10.106;2022-08-21T08:32:13;8.10;;;2.90;;
4921;SDS011;16625;53.624;10.106;2022-08-21T08:34:41;10.33;;;3.40;;
4921;SDS011;16625;53.624;10.106;2022-08-21T08:37:08;6.80;;;3.00;;
4921;SDS011;16625;53.624;10.106;2022-08-21T08:39:36;8.60;;;3.47;;
4921;SDS011;16625;53.624;10.106;2022-08-21T08:42:11;10.60;;;3.20;;
4921;SDS011;16625;53.624;10.106;2022-08-21T08:44:40;11.13;;;3.13;;
4921;SDS011;16625;53.624;10.106;2022-08-21T08:47:07;6.33;;;2.70;;
4921;SDS011;16625;53.624;10.106;2022-08-21T08:49:39;5.33;;;2.67;;
4921;SDS011;16625;53.624;10.106;2022-08-21T08:52:17;9.73;;;3.37;;
4921;SDS011;16625;53.624;10.106;2022-08-21T08:54:49;7.33;;;3.37;;
4921;SDS011;16625;53.624;10.106;2022-08-21T08:57:22;9.20;;;3.47;;
4921;SDS011;16625;53.624;10.106;2022-08-21T08:59:52;7.20;;;3.00;;
4921;SDS011;16625;53.624;10.106;2022-08-21T09:02:21;7.37;;;3.27;;
4921;SDS011;16625;53.624;10.106;2022-08-21T09:04:50;4.90;;;3.50;;
4921;SDS011;16625;53.624;10.106;2022-08-21T09:07:19;5.47;;;3.30;;
4921;SDS011;16625;53.624;10.106;2022-08-21T09:09:58;14.00;;;3.20;;
4921;SDS011;16625;53.624;10.106;2022-08-21T09:12:33;12.03;;;3.83;;
4921;SDS011;16625;53.624;10.106;2022-08-21T09:15:06;9.40;;;3.10;;
4921;SDS011;16625;53.624;10.106;2022-08-21T09:17:49;8.07;;;3.03;;
4921;SDS011;16625;53.624;10.106;2022-08-21T09:20:28;6.10;;;2.57;;
4921;SDS011;16625;53.624;10.106;2022-08-21T09:23:05;6.53;;;2.77;;
4921;SDS011;16625;53.624;10.106;2022-08-21T09:25:45;8.27;;;3.03;;
4921;SDS011;16625;53.624;10.106;2022-08-21T09:28:21;6.87;;;3.00;;
4921;SDS011;16625;53.624;10.106;2022-08-21T09:30:48;6.40;;;3.53;;
4921;SDS011;16625;53.624;10.106;2022-08-21T09:33:17;8.00;;;3.17;;
4921;SDS011;16625;53.624;10.106;2022-08-21T09:35:51;10.40;;;2.77;;
4921;SDS011;16625;53.624;10.106;2022-08-21T09:38:27;4.30;;;2.47;;
4921;SDS011;16625;53.624;10.106;2022-08-21T09:40:58;4.00;;;2.90;;
4921;SDS011;16625;53.624;10.106;2022-08-21T09:43:27;4.87;;;2.83;;
4921;SDS011;16625;53.624;10.106;2022-08-21T09:46:02;8.67;;;2.50;;
4921;SDS011;16625;53.624;10.106;2022-08-21T09:48:39;5.60;;;3.10;;
4921;SDS011;16625;53.624;10.106;2022-08-21T09:51:10;4.83;;;2.60;;
4921;SDS011;16625;53.624;10.106;2022-08-21T09:53:39;11.73;;;3.60;;
4921;SDS011;16625;53.624;10.106;2022-08-21T09:56:18;5.70;;;2.63;;
4921;SDS011;16625;53.624;10.106;2022-08-21T09:59:16;8.67;;;3.10;;
4921;SDS011;16625;53.624;10.106;2022-08-21T10:01:47;8.20;;;2.63;;
4921;SDS011;16625;53.624;10.106;2022-08-21T10:04:19;8.73;;;3.13;;
4921;SDS011;16625;53.624;10.106;2022-08-21T10:06:49;9.60;;;3.30;;
4921;SDS011;16625;53.624;10.106;2022-08-21T10:09:16;9.43;;;3.10;;
4921;SDS011;16625;53.624;10.106;2022-08-21T10:11:47;12.70;;;3.85;;
4921;SDS011;16625;53.624;10.106;2022-08-21T10:14:21;10.57;;;3.10;;
4921;SDS011;16625;53.624;10.106;2022-08-21T10:17:07;14.98;;;2.90;;
4921;SDS011;16625;53.624;10.106;2022-08-21T10:19:43;9.57;;;3.38;;
4921;SDS011;16625;53.624;10.106;2022-08-21T10:22:25;6.60;;;3.17;;
4921;SDS011;16625;53.624;10.106;2022-08-21T10:25:02;17.73;;;4.30;;
4921;SDS011;16625;53.624;10.106;2022-08-21T10:27:37;9.70;;;2.90;;
4921;SDS011;16625;53.624;10.106;2022-08-21T10:30:14;6.27;;;3.60;;
4921;SDS011;16625;53.624;10.106;2022-08-21T10:32:59;10.38;;;3.08;;
4921;SDS011;16625;53.624;10.106;2022-08-21T10:35:38;9.33;;;3.10;;
4921;SDS011;16625;53.624;10.106;2022-08-21T10:38:22;6.77;;;2.60;;
4921;SDS011;16625;53.624;10.106;2022-08-21T10:41:06;5.70;;;2.43;;
4921;SDS011;16625;53.624;10.106;2022-08-21T10:43:43;14.43;;;3.80;;
4921;SDS011;16625;53.624;10.106;2022-08-21T10:46:17;9.13;;;3.33;;
4921;SDS011;16625;53.624;10.106;2022-08-21T10:48:59;6.43;;;3.60;;
4921;SDS011;16625;53.624;10.106;2022-08-21T10:51:35;5.60;;;2.90;;
4921;SDS011;16625;53.624;10.106;2022-08-21T10:54:12;8.07;;;3.13;;
4921;SDS011;16625;53.624;10.106;2022-08-21T10:56:44;13.10;;;3.33;;
4921;SDS011;16625;53.624;10.106;2022-08-21T10:59:20;8.77;;;3.10;;
4921;SDS011;16625;53.624;10.106;2022-08-21T11:01:53;8.35;;;2.78;;
4921;SDS011;16625;53.624;10.106;2022-08-21T11:04:25;6.90;;;2.90;;
4921;SDS011;16625;53.624;10.106;2022-08-21T11:06:58;6.95;;;2.95;;
4921;SDS011;16625;53.624;10.106;2022-08-21T11:09:31;6.13;;;2.85;;
4921;SDS011;16625;53.624;10.106;2022-08-21T11:11:58;7.70;;;2.80;;
4921;SDS011;16625;53.624;10.106;2022-08-21T11:14:34;6.43;;;3.10;;
4921;SDS011;16625;53.624;10.106;2022-08-21T11:17:07;5.85;;;2.67;;
4921;SDS011;16625;53.624;10.106;2022-08-21T11:19:39;6.43;;;2.97;;
4921;SDS011;16625;53.624;10.106;2022-08-21T11:22:13;9.13;;;4.32;;
4921;SDS011;16625;53.624;10.106;2022-08-21T11:24:49;6.25;;;2.63;;
4921;SDS011;16625;53.624;10.106;2022-08-21T11:27:21;6.33;;;2.53;;
4921;SDS011;16625;53.624;10.106;2022-08-21T11:29:53;4.75;;;2.00;;
4921;SDS011;16625;53.624;10.106;2022-08-21T11:32:37;7.82;;;3.40;;
4921;SDS011;16625;53.624;10.106;2022-08-21T11:35:25;5.00;;;2.92;;
4921;SDS011;16625;53.624;10.106;2022-08-21T11:38:00;6.82;;;3.08;;
4921;SDS011;16625;53.624;10.106;2022-08-21T11:40:52;7.40;;;3.07;;
4921;SDS011;16625;53.624;10.106;2022-08-21T11:43:31;5.03;;;2.30;;
4921;SDS011;16625;53.624;10.106;2022-08-21T11:46:10;3.67;;;2.35;;
4921;SDS011;16625;53.624;10.106;2022-08-21T11:49:02;3.83;;;2.30;;
4921;SDS011;16625;53.624;10.106;2022-08-21T11:51:44;7.35;;;2.28;;
4921;SDS011;16625;53.624;10.106;2022-08-21T11:54:20;3.05;;;2.10;;
4921;SDS011;16625;53.624;10.106;2022-08-21T11:56:58;4.47;;;2.60;;
4921;SDS011;16625;53.624;10.106;2022-08-21T11:59:31;4.70;;;2.53;;
4921;SDS011;16625;53.624;10.106;2022-08-21T12:02:02;3.88;;;2.20;;
4921;SDS011;16625;53.624;10.106;2022-08-21T12:04:41;5.78;;;2.97;;
4921;SDS011;16625;53.624;10.106;2022-08-21T12:07:11;8.93;;;3.20;;
4921;SDS011;16625;53.624;10.106;2022-08-21T12:09:40;4.15;;;2.90;;
4921;SDS011;16625;53.624;10.106;2022-08-21T12:12:25;5.95;;;2.80;;
4921;SDS011;16625;53.624;10.106;2022-08-21T12:15:05;6.68;;;2.50;;
4921;SDS011;16625;53.624;10.106;2022-08-21T12:17:54;8.07;;;2.55;;
4921;SDS011;16625;53.624;10.106;2022-08-21T12:20:26;8.15;;;2.60;;
4921;SDS011;16625;53.624;10.106;2022-08-21T12:23:05;6.90;;;2.95;;
4921;SDS011;16625;53.624;10.106;2022-08-21T12:25:43;4.40;;;2.65;;
4921;SDS011;16625;53.624;10.106;2022-08-21T12:28:14;6.22;;;2.90;;
4921;SDS011;16625;53.624;10.106;2022-08-21T12:30:48;5.43;;;2.30;;
4921;SDS011;16625;53.624;10.106;2022-08-21T12:33:20;4.13;;;2.10;;
4921;SDS011;16625;53.624;10.106;2022-08-21T12:35:51;4.45;;;2.47;;
4921;SDS011;16625;53.624;10.106;2022-08-21T12:38:28;6.28;;;2.70;;
4921;SDS011;16625;53.624;10.106;2022-08-21T12:40:59;5.22;;;2.45;;
4921;SDS011;16625;53.624;10.106;2022-08-21T12:43:33;8.50;;;3.13;;
4921;SDS011;16625;53.624;10.106;2022-08-21T12:46:02;6.22;;;2.70;;
4921;SDS011;16625;53.624;10.106;2022-08-21T12:48:31;6.75;;;2.95;;
4921;SDS011;16625;53.624;10.106;2022-08-21T12:51:05;6.80;;;2.25;;
4921;SDS011;16625;53.624;10.106;2022-08-21T12:53:38;10.48;;;2.70;;
4921;SDS011;16625;53.624;10.106;2022-08-21T12:56:14;4.78;;;2.28;;
4921;SDS011;16625;53.624;10.106;2022-08-21T12:58:46;5.80;;;2.20;;
4921;SDS011;16625;53.624;10.106;2022-08-21T13:01:17;4.97;;;2.65;;
4921;SDS011;16625;53.624;10.106;2022-08-21T13:03:48;3.67;;;2.65;;
4921;SDS011;16625;53.624;10.106;2022-08-21T13:06:15;6.90;;;2.88;;
4921;SDS011;16625;53.624;10.106;2022-08-21T13:08:45;3.83;;;2.50;;
4921;SDS011;16625;53.624;10.106;2022-08-21T13:11:14;3.80;;;2.20;;
4921;SDS011;16625;53.624;10.106;2022-08-21T13:13:49;8.37;;;2.27;;
4921;SDS011;16625;53.624;10.106;2022-08-21T13:16:18;5.07;;;2.70;;
4921;SDS011;16625;53.624;10.106;2022-08-21T13:18:52;7.55;;;2.22;;
4921;SDS011;16625;53.624;10.106;2022-08-21T13:21:26;4.05;;;2.35;;
4921;SDS011;16625;53.624;10.106;2022-08-21T13:24:13;6.65;;;2.75;;
4921;SDS011;16625;53.624;10.106;2022-08-21T13:26:42;3.75;;;2.47;;
4921;SDS011;16625;53.624;10.106;2022-08-21T13:29:11;5.00;;;2.20;;
4921;SDS011;16625;53.624;10.106;2022-08-21T13:31:42;12.57;;;2.40;;
4921;SDS011;16625;53.624;10.106;2022-08-21T13:34:14;5.07;;;2.20;;
4921;SDS011;16625;53.624;10.106;2022-08-21T13:36:43;3.88;;;2.10;;
4921;SDS011;16625;53.624;10.106;2022-08-21T13:39:12;4.35;;;2.10;;
4921;SDS011;16625;53.624;10.106;2022-08-21T13:41:44;6.05;;;2.53;;
4921;SDS011;16625;53.624;10.106;2022-08-21T13:44:16;4.25;;;2.33;;
4921;SDS011;16625;53.624;10.106;2022-08-21T13:46:45;4.75;;;1.60;;
4921;SDS011;16625;53.624;10.106;2022-08-21T13:49:13;3.60;;;2.50;;
4921;SDS011;16625;53.624;10.106;2022-08-21T13:51:42;3.08;;;2.00;;
4921;SDS011;16625;53.624;10.106;2022-08-21T13:54:14;3.88;;;1.75;;
4921;SDS011;16625;53.624;10.106;2022-08-21T13:56:46;5.18;;;2.13;;
4921;SDS011;16625;53.624;10.106;2022-08-21T13:59:24;5.60;;;2.00;;
4921;SDS011;16625;53.624;10.106;2022-08-21T14:01:53;5.40;;;1.85;;
4921;SDS011;16625;53.624;10.106;2022-08-21T14:04:25;3.75;;;1.90;;
4921;SDS011;16625;53.624;10.106;2022-08-21T14:06:57;3.15;;;2.03;;
4921;SDS011;16625;53.624;10.106;2022-08-21T14:09:26;5.40;;;2.05;;
4921;SDS011;16625;53.624;10.106;2022-08-21T14:11:56;3.80;;;1.80;;
4921;SDS011;16625;53.624;10.106;2022-08-21T14:14:28;3.25;;;2.10;;
4921;SDS011;16625;53.624;10.106;2022-08-21T14:16:58;3.92;;;1.92;;
4921;SDS011;16625;53.624;10.106;2022-08-21T14:19:27;6.82;;;1.88;;
4921;SDS011;16625;53.624;10.106;2022-08-21T14:22:12;3.63;;;1.75;;
4921;SDS011;16625;53.624;10.106;2022-08-21T14:24:49;3.97;;;3.17;;
4921;SDS011;16625;53.624;10.106;2022-08-21T14:27:17;3.30;;;2.28;;
4921;SDS011;16625;53.624;10.106;2022-08-21T14:29:45;3.60;;;1.88;;
4921;SDS011;16625;53.624;10.106;2022-08-21T14:32:13;2.80;;;1.80;;
4921;SDS011;16625;53.624;10.106;2022-08-21T14:34:46;2.00;;;1.40;;
4921;SDS011;16625;53.624;10.106;2022-08-21T14:37:13;3.85;;;2.10;;
4921;SDS011;16625;53.624;10.106;2022-08-21T14:39:40;4.05;;;1.98;;
4921;SDS011;16625;53.624;10.106;2022-08-21T14:42:07;3.05;;;1.88;;
4921;SDS011;16625;53.624;10.106;2022-08-21T14:44:34;9.77;;;2.03;;
4921;SDS011;16625;53.624;10.106;2022-08-21T14:47:03;7.63;;;1.80;;
4921;SDS011;16625;53.624;10.106;2022-08-21T14:49:30;3.97;;;1.90;;
4921;SDS011;16625;53.624;10.106;2022-08-21T14:51:57;6.10;;;2.10;;
4921;SDS011;16625;53.624;10.106;2022-08-21T14:54:25;4.10;;;2.50;;
4921;SDS011;16625;53.624;10.106;2022-08-21T14:56:53;5.43;;;2.15;;
4921;SDS011;16625;53.624;10.106;2022-08-21T14:59:20;3.42;;;2.20;;
4921;SDS011;16625;53.624;10.106;2022-08-21T15:01:48;5.53;;;2.50;;
4921;SDS011;16625;53.624;10.106;2022-08-21T15:04:17;4.00;;;1.90;;